Archival Weather

Bridgeport/Sikorsky

Bridgeport, Connecticut (KBDR)

Report from: Friday, February 23, 2024 12:52 AM EST
Current time: Wednesday, May 29, 2024 9:05 PM EDT

Current weather – Weather history – Daily summaries
Weather forecast

Present weatherLight rain
Temperature3.9°C (39.0°F)
Wind chill2.0°C (35.6°F)
Dew point2.8°C (37.0°F)
Winds 4 kts (2.1 m/s, 4.6 mph) East-Southeast (110°)
Visibility9 mi. (14.5 km)
Clouds Scattered clouds 2,300 ft. (701 m)
Ceiling: Overcast 3,600 ft. (1,097 m)
Altimeter29.69 in.Hg (1005 mB)
Precipitiation0.01 in. (0 mm)
Precip last 3 hours0.01 in. (0 mm)
Relative humidity93 %
Density altitude-963 ft. (-293 m)
Sea-level pressure100.5 kPa (1005 mB, 29.69 in.Hg)
Max temp last 6 hours3.9°C (39.0°F)
Min temp last 6 hours3.9°C (39.0°F)
Remarks Fully automated report
Automated weather observing station with precipitation discriminator
Pressure falling more slowly
Flight conditions Visual Meteorological Conditions
Raw dataKBDR 230552Z AUTO 11004KT 9SM -RA SCT023 OVC036 04/03 A2969 RMK AO2 SLP053 P0001 60001 T00390028 10039 20039 56033
An error has occurred. This application may no longer respond until reloaded. Reload 🗙